Fort Morgan, CO

3:04 PM MDT on September 18, 2014 (GMT -0600)
Fort Morgan | Change Station
CLOSE
Current Station
Personal Weather Station
Location: Fort Morgan, CO
Elevation: 4327 ft
Nearby Weather Stations

Elev 4327 ft 40.24 °N, 103.79 °W | Updated 8 seconds ago

Clear
Clear
92.3 °F
Feels Like 88 °F
N
3.1
Wind Variable Wind from NNE
Gusts 5.4 mph

Today
High -- | Low -- °F
--% Chance of Precip.
Yesterday
High -- | Low -- °F
Precip. -- in
6:39 AM 6:58 PM
Waning Crescent, 24% visible
Pressure 29.94 in
Visibility 10.0 miles
Clouds Clear
Heat Index 88 °F
Dew Point 28 °F
Humidity 10%
Rainfall 0.00 in
Snow Depth 0 in , 87 in , 0 in
UV 0.0 out of 12
Pollen 7.70 out of 12
Air Quality Not available.
Flu Activity Not available.
METAR KFMM 182055Z AUTO 15004KT 10SM CLR 32/06 A2994 RMK AO2 T03200059

More Conditions Fewer Conditions

Pressure 29.94 in
Visibility 10.0 miles
Clouds Clear
Heat Index 88 °F
Dew Point 28 °F
Humidity 10%
Rainfall 0.00 in
Snow Depth 0 in , 87 in , 0 in
UV 0.0 out of 12
Pollen 7.70 out of 12
Air Quality Not available.
Flu Activity Not available.
METAR KFMM 182055Z AUTO 15004KT 10SM CLR 32/06 A2994 RMK AO2 T03200059

More Conditions Fewer Conditions

10-Day Weather Forecast

Almanac

Astronomy

Sep. 18, 2014 Rise Set
Actual Time 6:39 AM MDT 6:58 PM MDT
Civil Twilight 6:11 AM MDT 7:26 PM MDT
Nautical Twilight 5:39 AM MDT 7:57 PM MDT
Astronomical Twilight 5:07 AM MDT 8:30 PM MDT
Moon 1:32 AM MDT 3:52 PM MDT
Length of Visible Light 13h 14m
Length of Day
12h 19m
Tomorrow will be 2m 38s shorter.
Waning Crescent, 24% of the Moon is Illuminated
Today
Waning Crescent
Sep 24
New
Oct 1
First Quarter
Oct 8
Full
Oct 15
Last Quarter

Today's Extremes

State Highs State Lows

Community

WunderPhotos

Upload Photos

1,754,444 photos uploaded!

WunderBlogs® & News

By Dr. Jeff Masters
Director of Meteorology, Weather Underground
By Kari Strenfel
Meteorologist, Weather Underground
By Christopher C. Burt
Weather Historian, Weather Underground
September 18, 2014
September 18, 2014
September 18, 2014

Nearby

Snow Depth

Station Depth Elevation
Phantom Valley 0 in 9030 ft
Vail Mountain 87 in 10300 ft
Idarado 0 in 9800 ft
Ripple Creek 0 in 10340 ft
Bear RIver 0 in 9080 ft

Earthquake Activity

City Distance Mag. Time & Date
No recent earthquake activity has been reported nearby.
Minimum magnitude displayed is 2.5.

Coastal Water Temperatures

Place Temperature
No Stations Reporting

Nearby Weather Stations